Cedar Bluff, Iowa
Current Conditions -  °F | °C
As of 5:52 AM on Monday 26 Jan 2015 (Local Time) from KIOW Reporting Station
Overcast Overcast  
Wind Chill: 16°   Ceiling: 2400
Heat Index: 22°   Visibility: 10mi
Dew Point: 16°   Wind: 5mph
Humidity: 78%   Direction: 140°SE
Pressure: 29.98"   Gusts: NA
Location:  41.7563°N, 91.1443°W
Report Text: KIOW 261152Z AUTO 14004KT 10SM OVC024 M06/M09 A2998 RMK AO2 SLP162 70010 T10561089 11056 21078 58019
Loading
Personal Weather Stations






























Interactive Weather Map New forecast layout! Learn more

10-Day Weather Forecast

Advertisements
Track Severe Weather on mobile